Flight Track Log - Related Links

Times and Time Zones

All times are in EDT time to prevent confusion due to time zone crossing. See the TAM3752 flight status page for this flight to view local times or setup timezone preferences in your user account.

Time Position Orientation Groundspeed Altitude Reporting Facility
EDT Latitude Longitude Course Direction KTS MPH feet Rate Location/Type
Sun 07:02:44 PM -22.9310 -43.1540 137° Southeast 147 169 1,100  Level FlightAware ADS-B
Sun 07:03:04 PM -22.9390 -43.1420 126° Southeast 152 175 2,000 2,053 Climbing FlightAware ADS-B
Sun 07:03:22 PM -22.9480 -43.1320 134° Southeast 177 204 2,400 1,364 Climbing FlightAware ADS-B
Sun 07:03:26 PM -22.9520 -43.1300 155° Southeast 183 211 2,500 1,500 Climbing FlightAware ADS-B
Sun 07:03:34 PM -22.9580 -43.1280 163° South 191 220 2,700 1,750 Climbing FlightAware ADS-B
Sun 07:03:50 PM -22.9730 -43.1240 166° South 212 244 3,200 1,800 Climbing FlightAware ADS-B
Sun 07:03:54 PM -22.9760 -43.1220 148° Southeast 218 251 3,300 1,500 Climbing FlightAware ADS-B
Sun 07:04:02 PM -22.9810 -43.1150 128° Southeast 226 260 3,500 1,875 Climbing FlightAware ADS-B
Sun 07:04:10 PM -22.9840 -43.1060 110° East 236 272 3,800 1,895 Climbing FlightAware ADS-B
Sun 07:04:21 PM -22.9840 -43.0960 90° East 246 283 4,100 2,250 Climbing FlightAware ADS-B
Sun 07:04:42 PM -22.9810 -43.0660 84° East 274 315 5,000 2,690 Climbing FlightAware ADS-B
Sun 07:04:50 PM -22.9770 -43.0560 67° East 275 316 5,400 3,000 Climbing FlightAware ADS-B
Sun 07:04:58 PM -22.9710 -43.0480 51° Northeast 278 320 5,800 3,000 Climbing FlightAware ADS-B
Sun 07:05:06 PM -22.9610 -43.0410 33° Northeast 280 322 6,200 3,000 Climbing FlightAware ADS-B
Sun 07:05:16 PM -22.9490 -43.0370 17° North 283 326 6,700 3,300 Climbing FlightAware ADS-B
Sun 07:05:46 PM -22.9110 -43.0480 345° North 285 328 8,400 3,346 Climbing FlightAware ADS-B
Sun 07:06:08 PM -22.8820 -43.0570 344° North 291 335 9,600 2,483 Climbing FlightAware ADS-B
Sun 07:06:44 PM -22.8330 -43.0710 345° North 321 369 10,800 1,853 Climbing FlightAware ADS-B
Sun 07:07:16 PM -22.7840 -43.0870 343° North 355 409 11,700 2,294 Climbing FlightAware ADS-B
Sun 07:07:52 PM -22.7280 -43.1050 343° North 363 418 13,400 2,667 Climbing FlightAware ADS-B
Sun 07:08:28 PM -22.6670 -43.1240 344° North 377 434 14,900 2,486 Climbing FlightAware ADS-B
Sun 07:09:02 PM -22.6100 -43.1440 342° North 388 447 16,300 2,471 Climbing FlightAware ADS-B
Sun 07:09:36 PM -22.5500 -43.1650 342° North 394 453 17,700 2,500 Climbing FlightAware ADS-B
Sun 07:10:14 PM -22.4840 -43.1880 342° North 398 458 19,300 2,486 Climbing FlightAware ADS-B
Sun 07:10:46 PM -22.4270 -43.2070 343° North 404 465 20,600 2,029 Climbing FlightAware ADS-B
Sun 07:11:22 PM -22.3660 -43.2280 342° North 416 479 21,600 2,083 Climbing FlightAware ADS-B
Sun 07:11:58 PM -22.2960 -43.2520 342° North 417 480 23,100 2,250 Climbing FlightAware ADS-B
Sun 07:12:34 PM -22.2270 -43.2750 343° North 424 488 24,300 2,229 Climbing FlightAware ADS-B
Sun 07:13:08 PM -22.1630 -43.2970 342° North 419 482 25,700 1,765 Climbing FlightAware ADS-B
Sun 07:13:42 PM -22.1150 -43.3130 343° North 429 494 26,300 2,182 Climbing FlightAware ADS-B
Sun 07:14:14 PM -22.0490 -43.3360 342° North 415 478 28,100 2,455 Climbing FlightAware ADS-B
Sun 07:14:48 PM -21.9920 -43.3550 343° North 410 472 29,000 730 Climbing FlightAware ADS-B
Sun 07:15:28 PM -21.9180 -43.3800 343° North 405 466 29,000  Level FlightAware ADS-B
Sun 07:16:09 PM -21.8450 -43.4050 342° North 407 468 29,000  Level FlightAware ADS-B
Sun 07:16:41 PM -21.7830 -43.4250 343° North 409 471 29,000  Level FlightAware ADS-B
Sun 07:17:19 PM -21.7160 -43.4480 342° North 412 474 29,000 83 Level FlightAware ADS-B
Sun 07:17:53 PM -21.6610 -43.4670 342° North 411 473 29,100 82 Climbing FlightAware ADS-B
Sun 07:18:32 PM -21.5850 -43.4930 342° North 410 472 29,100 -85 Level FlightAware ADS-B
Sun 07:19:04 PM -21.5250 -43.5130 343° North 408 470 29,000 -92 Descending FlightAware ADS-B
Sun 07:19:37 PM -21.4670 -43.5330 342° North 408 470 29,000  Level FlightAware ADS-B
Sun 07:20:14 PM -21.4010 -43.5540 343° North 407 468 29,000  Level FlightAware ADS-B
Sun 07:20:51 PM -21.3330 -43.5770 343° North 406 467 29,000  Level FlightAware ADS-B
Sun 07:21:31 PM -21.2610 -43.6010 343° North 404 465 29,000  Level FlightAware ADS-B
Sun 07:22:08 PM -21.1950 -43.6230 343° North 403 464 29,000  Level FlightAware ADS-B
Sun 07:22:40 PM -21.1370 -43.6430 342° North 401 461 29,000  Level FlightAware ADS-B
Sun 07:23:13 PM -21.0810 -43.6620 342° North 400 460 29,000  Level FlightAware ADS-B
Sun 07:23:50 PM -21.0140 -43.6840 343° North 398 458 29,000  Level FlightAware ADS-B
Sun 07:24:27 PM -20.9490 -43.7060 342° North 397 457 29,000 -261 Level FlightAware ADS-B
Sun 07:24:59 PM -20.8920 -43.7250 343° North 395 455 28,700 -750 Descending FlightAware ADS-B
Sun 07:25:31 PM -20.8350 -43.7440 343° North 393 452 28,200 -1,054 Descending FlightAware ADS-B
Sun 07:26:13 PM -20.7540 -43.7710 343° North 398 458 27,400 -1,100 Descending FlightAware ADS-B
Sun 07:26:31 PM -20.7210 -43.7770 350° North 407 468 27,100 -947 Descending FlightAware ADS-B
Sun 07:26:51 PM -20.6870 -43.7750 North 411 473 26,800 -982 Descending FlightAware ADS-B
Sun 07:27:26 PM -20.6210 -43.7690 North 406 467 26,200 -973 Descending FlightAware ADS-B
Sun 07:28:05 PM -20.5440 -43.7630 North 402 463 25,600 -1,014 Descending FlightAware ADS-B
Sun 07:28:37 PM -20.4840 -43.7590 North 404 465 25,000 -1,029 Descending FlightAware ADS-B
Sun 07:29:15 PM -20.4120 -43.7530 North 407 468 24,400 -1,029 Descending FlightAware ADS-B
Sun 07:29:47 PM -20.3520 -43.7490 North 403 464 23,800 -985 Descending FlightAware ADS-B
Sun 07:30:22 PM -20.2880 -43.7440 North 394 453 23,300 -904 Descending FlightAware ADS-B
Sun 07:31:00 PM -20.2200 -43.7380 North 388 447 22,700 -1,043 Descending FlightAware ADS-B
Sun 07:31:31 PM -20.1640 -43.7340 North 383 441 22,100 -2,060 Descending FlightAware ADS-B
Sun 07:32:07 PM -20.0990 -43.7290 North 395 455 20,400 -2,583 Descending FlightAware ADS-B
Sun 07:32:43 PM -20.0330 -43.7230 North 388 447 19,000 -2,167 Descending FlightAware ADS-B
Sun 07:33:19 PM -19.9690 -43.7180 North 377 434 17,800 -2,241 Descending FlightAware ADS-B
Sun 07:34:06 PM -19.8930 -43.7190 359° North 376 433 15,900 -2,268 Descending FlightAware ADS-B
Sun 07:34:41 PM -19.8320 -43.7390 343° North 372 428 14,700 -1,886 Descending FlightAware ADS-B
Sun 07:35:16 PM -19.7740 -43.7560 345° North 361 415 13,700 -2,073 Descending FlightAware ADS-B
Sun 07:35:36 PM -19.7460 -43.7670 340° North 363 418 12,800 -2,250 Descending FlightAware ADS-B
Sun 07:36:12 PM -19.6910 -43.7960 334° Northwest 357 411 11,600 -1,886 Descending FlightAware ADS-B
Sun 07:36:46 PM -19.6400 -43.8220 334° Northwest 346 398 10,600 -1,304 Descending FlightAware ADS-B
Sun 07:37:21 PM -19.5900 -43.8480 334° Northwest 323 372 10,100 -900 Descending FlightAware ADS-B
Sun 07:37:46 PM -19.5570 -43.8640 335° Northwest 305 351 9,700 -1,067 Descending FlightAware ADS-B
Sun 07:38:06 PM -19.5320 -43.8770 334° Northwest 299 344 9,300 -1,371 Descending FlightAware ADS-B
Sun 07:38:21 PM -19.5130 -43.8860 336° Northwest 297 342 8,900 -1,500 Descending FlightAware ADS-B
Sun 07:38:42 PM -19.4920 -43.8980 332° Northwest 293 337 8,400 -1,680 Descending FlightAware ADS-B
Sun 07:38:46 PM -19.4850 -43.9050 317° Northwest 292 336 8,200 -2,667 Descending FlightAware ADS-B
Sun 07:38:51 PM -19.4810 -43.9090 317° Northwest 291 335 8,000 -1,125 Descending FlightAware ADS-B
Sun 07:39:02 PM -19.4750 -43.9220 296° West 283 326 7,900 -720 Descending FlightAware ADS-B
Sun 07:39:16 PM -19.4680 -43.9410 291° West 275 316 7,700 -1,231 Descending FlightAware ADS-B
Sun 07:39:41 PM -19.4560 -43.9730 292° West 272 313 7,100 -1,333 Descending FlightAware ADS-B
Sun 07:40:01 PM -19.4470 -43.9970 292° West 269 310 6,700 -1,080 Descending FlightAware ADS-B
Sun 07:40:31 PM -19.4330 -44.0330 292° West 256 295 6,200 -1,029 Descending FlightAware ADS-B
Sun 07:40:36 PM -19.4330 -44.0390 270° West 257 296 6,100 -1,200 Descending FlightAware ADS-B
Sun 07:41:01 PM -19.4480 -44.0650 239° Southwest 249 287 5,600 -1,000 Descending FlightAware ADS-B
Sun 07:41:06 PM -19.4520 -44.0680 215° Southwest 245 282 5,600 -571 Level FlightAware ADS-B
Sun 07:41:22 PM -19.4670 -44.0760 207° Southwest 235 270 5,400 -686 Descending FlightAware ADS-B
Sun 07:41:41 PM -19.4840 -44.0860 209° Southwest 220 253 5,200 -500 Descending FlightAware ADS-B
Sun 07:41:46 PM -19.4910 -44.0870 188° South 210 242 5,200 -400 Level FlightAware ADS-B
Sun 07:42:11 PM -19.5110 -44.0800 162° South 176 203 5,000 -429 Descending FlightAware ADS-B
Sun 07:42:28 PM -19.5210 -44.0730 147° Southeast 161 185 4,900 -514 Descending FlightAware ADS-B
Sun 07:42:46 PM -19.5310 -44.0630 137° Southeast 152 175 4,700 -643 Descending FlightAware ADS-B
Sun 07:42:56 PM -19.5370 -44.0580 142° Southeast 148 170 4,600 -686 Descending FlightAware ADS-B
Sun 07:43:21 PM -19.5500 -44.0460 139° Southeast 146 168 4,300 -800 Descending FlightAware ADS-B
Sun 07:43:41 PM -19.5590 -44.0380 140° Southeast 142 163 4,000 -750 Descending FlightAware ADS-B
Sun 07:44:01 PM -19.5700 -44.0280 139° Southeast 141 162 3,800 -649 Descending FlightAware ADS-B
Sun 07:44:18 PM -19.5780 -44.0200 137° Southeast 136 157 3,600 -720 Descending FlightAware ADS-B
Sun 07:44:51 PM -19.5930 -44.0060 139° Southeast 132 152 3,200 -679 Descending FlightAware ADS-B
Sun 07:45:11 PM -19.6020 -43.9980 140° Southeast 131 151 3,000 -667 Descending FlightAware ADS-B
Sun 07:45:36 PM -19.6130 -43.9880 139° Southeast 130 150 2,700 -500 Descending FlightAware ADS-B
Sun 07:45:59 PM -19.6190 -43.9820 137° Southeast 131 151 2,600 -261 Descending FlightAware ADS-B

Login

Don't have an account? Register now (free) for customized features, flight alerts, and more!